Macy, Indiana
Current Conditions -  °F | °C
As of 6:55 AM on Monday 22 Dec 2014 (Local Time) from KRCR Reporting Station
Clear Clear  
Wind Chill: 26°   Ceiling: Unl
Heat Index: 32°   Visibility: 7mi
Dew Point: 30°   Wind: 7mph
Humidity: 93%   Direction: 110°ESE
Pressure: 30"   Gusts: NA
Location:  40.96°N, 86.13°W
Report Text: KRCR 221155Z AUTO 11006KT 7SM CLR 00/M01 A3000 RMK AO2
Loading
Personal Weather Stations






























Interactive Weather Map New forecast layout! Learn more

10-Day Weather Forecast

Advertisements
Track Severe Weather on mobile